Time;durP1;ratioP1;P1;durP2;ratioP2;P2;SDS_P1;SDS_P2;PMS_P1;PMS_P2;Temp;Humidity;BMP_temperature;BMP_pressure;BME280_temperature;BME280_humidity;BME280_pressure;Samples;Min_cycle;Max_cycle;Signal;HPM_P1;HPM_P2
2023/12/19 00:00:43;;;;;;;6.43;4.40;;;4.40;99.90;;;;;;4998587;28;20612;-82
2023/12/19 00:03:11;;;;;;;3.00;2.00;;;4.30;99.90;;;;;;4999752;28;20193;-82
2023/12/19 00:05:39;;;;;;;12.30;7.03;;;4.30;99.90;;;;;;5000301;28;20668;-81
2023/12/19 00:08:07;;;;;;;11.02;3.80;;;4.40;99.90;;;;;;5000282;28;20198;-81
2023/12/19 00:10:33;;;;;;;8.43;5.35;;;4.30;99.90;;;;;;5000818;28;20221;-81
2023/12/19 00:13:00;;;;;;;3.13;2.73;;;4.30;99.90;;;;;;5015067;23;1129625;-82
2023/12/19 00:15:27;;;;;;;8.57;6.15;;;4.40;99.90;;;;;;5018926;28;20204;-82
2023/12/19 00:17:54;;;;;;;12.68;5.50;;;4.30;99.90;;;;;;5020723;28;20201;-80
2023/12/19 00:20:22;;;;;;;7.75;7.07;;;4.30;99.90;;;;;;5017297;28;20232;-81
2023/12/19 00:22:49;;;;;;;2.70;1.65;;;4.30;99.90;;;;;;5018398;28;20307;-80
2023/12/19 00:25:16;;;;;;;4.18;3.08;;;4.30;99.90;;;;;;5020591;28;20215;-81
2023/12/19 00:27:43;;;;;;;7.57;3.42;;;4.30;99.90;;;;;;5021273;28;20201;-80
2023/12/19 00:30:11;;;;;;;4.93;4.43;;;4.30;99.90;;;;;;5017065;28;20269;-80
2023/12/19 00:32:38;;;;;;;2.80;2.60;;;4.30;99.90;;;;;;5016960;28;20288;-81
2023/12/19 00:35:06;;;;;;;3.65;3.08;;;4.30;99.90;;;;;;5018428;28;20209;-78
2023/12/19 00:37:34;;;;;;;13.25;5.10;;;4.30;99.90;;;;;;5019699;28;20211;-79
2023/12/19 00:40:01;;;;;;;7.65;6.88;;;4.30;99.90;;;;;;5017779;28;20272;-79
2023/12/19 00:42:28;;;;;;;3.15;2.50;;;4.30;99.90;;;;;;5022267;28;20221;-80
2023/12/19 00:44:55;;;;;;;5.00;3.28;;;4.30;99.90;;;;;;5019647;28;20268;-80
2023/12/19 00:47:22;;;;;;;1.85;1.67;;;4.30;99.90;;;;;;5015613;28;20273;-81
2023/12/19 00:49:48;;;;;;;6.40;5.68;;;4.30;99.90;;;;;;5015854;28;20204;-80
2023/12/19 00:52:15;;;;;;;5.45;3.20;;;4.30;99.90;;;;;;5016455;28;20284;-81
2023/12/19 00:54:44;;;;;;;2.10;2.00;;;4.30;99.90;;;;;;5016693;28;20268;-81
2023/12/19 00:57:10;;;;;;;2.80;2.70;;;4.30;99.90;;;;;;5015390;28;20201;-80
2023/12/19 00:59:37;;;;;;;6.18;5.05;;;4.30;99.90;;;;;;5016792;28;20197;-81
2023/12/19 01:02:04;;;;;;;8.68;6.43;;;4.30;99.90;;;;;;5018581;28;20213;-80
2023/12/19 01:04:31;;;;;;;3.42;3.33;;;4.30;99.90;;;;;;5013733;28;20207;-82
2023/12/19 01:06:58;;;;;;;9.57;4.65;;;4.30;99.90;;;;;;5016853;28;20203;-82
2023/12/19 01:09:25;;;;;;;8.02;4.05;;;4.30;99.90;;;;;;5014746;28;20193;-81
2023/12/19 01:11:53;;;;;;;6.18;4.80;;;4.30;99.90;;;;;;5016327;28;20316;-80
2023/12/19 01:14:20;;;;;;;12.00;6.65;;;4.30;99.90;;;;;;5017400;28;20197;-79
2023/12/19 01:16:47;;;;;;;3.13;2.92;;;4.30;99.90;;;;;;5016034;28;20193;-80
2023/12/19 01:19:14;;;;;;;6.30;4.40;;;4.30;99.90;;;;;;5019178;28;20206;-80
2023/12/19 01:21:41;;;;;;;6.55;4.60;;;4.30;99.90;;;;;;5020760;28;20247;-81
2023/12/19 01:24:08;;;;;;;2.85;2.65;;;4.30;99.90;;;;;;5018299;28;20223;-82
2023/12/19 01:26:34;;;;;;;9.90;5.13;;;4.30;99.90;;;;;;5015948;28;20677;-81
2023/12/19 01:29:03;;;;;;;2.85;2.65;;;4.30;99.90;;;;;;5026879;28;20260;-79
2023/12/19 01:31:30;;;;;;;2.78;2.58;;;4.30;99.90;;;;;;5020660;28;20579;-80
2023/12/19 01:33:57;;;;;;;3.80;2.53;;;4.30;99.90;;;;;;5018935;28;20280;-81
2023/12/19 01:36:25;;;;;;;3.35;2.63;;;4.30;99.90;;;;;;5016149;28;20576;-81
2023/12/19 01:38:52;;;;;;;4.10;3.25;;;4.30;99.90;;;;;;5016609;28;20208;-80
2023/12/19 01:41:19;;;;;;;7.00;5.43;;;4.40;99.90;;;;;;5017247;28;20273;-80
2023/12/19 01:43:46;;;;;;;2.10;1.90;;;4.30;99.90;;;;;;5016606;28;20686;-80
2023/12/19 01:46:17;;;;;;;3.38;3.13;;;4.40;99.90;;;;;;5019055;28;20207;-81
2023/12/19 01:48:44;;;;;;;5.65;5.10;;;4.40;99.90;;;;;;5018274;28;20231;-80
2023/12/19 01:51:12;;;;;;;5.88;3.83;;;4.40;99.90;;;;;;5016506;28;20205;-82
2023/12/19 01:53:41;;;;;;;3.20;2.90;;;4.40;99.90;;;;;;5016230;28;20216;-81
2023/12/19 01:56:09;;;;;;;5.53;4.97;;;4.50;99.90;;;;;;5017043;28;20205;-78
2023/12/19 01:58:37;;;;;;;4.13;3.50;;;4.50;99.90;;;;;;5020228;28;20197;-80
2023/12/19 02:01:06;;;;;;;4.32;2.45;;;4.50;99.90;;;;;;5018689;28;20265;-81
2023/12/19 02:03:34;;;;;;;3.42;3.15;;;4.50;99.90;;;;;;5021577;28;20220;-79
2023/12/19 02:06:01;;;;;;;10.23;5.85;;;4.50;99.90;;;;;;5015227;28;20220;-79
2023/12/19 02:08:28;;;;;;;3.80;3.35;;;4.50;99.90;;;;;;5018357;28;20292;-80
2023/12/19 02:10:55;;;;;;;3.78;3.30;;;4.50;99.90;;;;;;5018668;28;20197;-80
2023/12/19 02:13:22;;;;;;;3.38;3.13;;;4.50;99.90;;;;;;5014894;28;20219;-81
2023/12/19 02:15:49;;;;;;;1.80;1.40;;;4.50;99.90;;;;;;5014610;28;20203;-80
2023/12/19 02:18:17;;;;;;;2.90;2.25;;;4.50;99.90;;;;;;5017542;28;20207;-79
2023/12/19 02:20:45;;;;;;;2.22;2.13;;;4.50;99.90;;;;;;5017866;28;20196;-80
2023/12/19 02:23:13;;;;;;;1.35;1.25;;;4.50;99.90;;;;;;5017754;28;20288;-80
2023/12/19 02:25:40;;;;;;;1.95;1.60;;;4.50;99.90;;;;;;5019174;28;20201;-81
2023/12/19 02:28:08;;;;;;;6.90;6.20;;;4.50;99.90;;;;;;5014989;28;20205;-82
2023/12/19 02:30:35;;;;;;;4.03;3.30;;;4.50;99.90;;;;;;5017425;28;20259;-81
2023/12/19 02:33:02;;;;;;;5.38;4.75;;;4.40;99.90;;;;;;5017012;28;20220;-80
2023/12/19 02:35:29;;;;;;;50.80;5.18;;;4.40;99.90;;;;;;5014309;28;20209;-81
2023/12/19 02:37:56;;;;;;;3.53;2.70;;;4.50;99.90;;;;;;5014434;28;20692;-81
2023/12/19 02:40:24;;;;;;;3.22;2.15;;;4.40;99.90;;;;;;5005530;28;20200;-80
2023/12/19 02:42:51;;;;;;;1.40;1.30;;;4.40;99.90;;;;;;5010549;28;20212;-81
2023/12/19 02:45:18;;;;;;;3.45;2.70;;;4.40;99.90;;;;;;5013788;28;20639;-80
2023/12/19 02:47:44;;;;;;;5.95;5.28;;;4.40;99.90;;;;;;5015127;28;20660;-81
2023/12/19 02:50:12;;;;;;;3.38;3.17;;;4.40;99.90;;;;;;5015526;28;20205;-80
2023/12/19 02:52:38;;;;;;;2.17;2.08;;;4.40;99.90;;;;;;5014201;28;20225;-79
2023/12/19 02:55:06;;;;;;;3.53;3.17;;;4.30;99.90;;;;;;5013815;28;20216;-80
2023/12/19 02:57:34;;;;;;;2.97;1.83;;;4.30;99.90;;;;;;5013988;28;20201;-82
2023/12/19 03:00:01;;;;;;;6.85;6.15;;;4.30;99.90;;;;;;5015090;28;20225;-80
2023/12/19 03:02:28;;;;;;;6.28;4.10;;;4.30;99.90;;;;;;5021642;28;20215;-79
2023/12/19 03:04:55;;;;;;;9.38;5.10;;;4.20;99.90;;;;;;5024281;28;20197;-81
2023/12/19 03:07:22;;;;;;;3.90;3.60;;;4.20;99.90;;;;;;5026832;28;20215;-81
2023/12/19 03:09:49;;;;;;;6.88;5.43;;;4.20;99.90;;;;;;5027821;28;20251;-81
2023/12/19 03:12:16;;;;;;;8.25;6.25;;;4.20;99.90;;;;;;5024758;28;20228;-80
2023/12/19 03:14:44;;;;;;;6.90;4.60;;;4.20;99.90;;;;;;5024602;28;20200;-79
2023/12/19 03:17:12;;;;;;;7.50;6.72;;;4.20;99.90;;;;;;5023920;28;20197;-78
2023/12/19 03:19:39;;;;;;;3.50;3.22;;;4.20;99.90;;;;;;5022741;28;20264;-81
2023/12/19 03:22:06;;;;;;;8.15;7.35;;;4.20;99.90;;;;;;5023301;28;20228;-82
2023/12/19 03:24:32;;;;;;;2.28;1.73;;;4.20;99.90;;;;;;5026195;28;20227;-80
2023/12/19 03:26:59;;;;;;;9.20;5.07;;;4.20;99.90;;;;;;5026180;28;20203;-82
2023/12/19 03:29:26;;;;;;;12.23;10.60;;;4.20;99.90;;;;;;5022352;28;20277;-81
2023/12/19 03:31:54;;;;;;;3.35;2.63;;;4.20;99.90;;;;;;5022790;28;20213;-81
2023/12/19 03:34:21;;;;;;;16.48;10.80;;;4.20;99.90;;;;;;5024421;28;20253;-80
2023/12/19 03:36:47;;;;;;;29.00;12.80;;;4.20;99.90;;;;;;5026016;28;20267;-81
2023/12/19 03:39:14;;;;;;;6.10;3.88;;;4.20;99.90;;;;;;5024212;28;20264;-81
2023/12/19 03:41:41;;;;;;;14.68;6.88;;;4.30;99.90;;;;;;5022655;28;20231;-81
2023/12/19 03:44:08;;;;;;;5.97;5.10;;;4.20;99.90;;;;;;5022303;28;20209;-81
2023/12/19 03:46:35;;;;;;;3.50;3.30;;;4.30;99.90;;;;;;5029658;28;20201;-82
2023/12/19 03:49:03;;;;;;;7.90;4.30;;;4.30;99.90;;;;;;5022766;28;20201;-82
2023/12/19 03:51:31;;;;;;;13.75;8.85;;;4.30;99.90;;;;;;5025828;28;20251;-81
2023/12/19 03:53:57;;;;;;;7.47;4.70;;;4.30;99.90;;;;;;5025207;28;20280;-81
2023/12/19 03:56:24;;;;;;;4.93;4.05;;;4.30;99.90;;;;;;5022007;28;20211;-82
2023/12/19 03:58:51;;;;;;;8.75;3.75;;;4.40;99.90;;;;;;5022478;28;20201;-81
2023/12/19 04:01:18;;;;;;;6.22;3.42;;;4.40;99.90;;;;;;5022988;28;20307;-82
2023/12/19 04:03:45;;;;;;;3.63;2.10;;;4.40;99.90;;;;;;5025049;28;20189;-83
2023/12/19 04:06:13;;;;;;;5.70;5.20;;;4.40;99.90;;;;;;5013778;28;20200;-80
2023/12/19 04:08:40;;;;;;;8.02;5.18;;;4.40;99.90;;;;;;5021822;28;20202;-78
2023/12/19 04:11:07;;;;;;;20.13;8.80;;;4.40;99.90;;;;;;5018712;28;20205;-77
2023/12/19 04:13:33;;;;;;;6.30;3.80;;;4.40;99.90;;;;;;5025696;28;20220;-83
2023/12/19 04:16:00;;;;;;;6.57;5.05;;;4.40;99.90;;;;;;5016347;28;20284;-81
2023/12/19 04:18:27;;;;;;;7.65;6.97;;;4.40;99.90;;;;;;5016401;28;20204;-82
2023/12/19 04:20:54;;;;;;;7.85;5.28;;;4.40;99.90;;;;;;5016369;28;20211;-80
2023/12/19 04:23:22;;;;;;;6.20;4.93;;;4.40;99.90;;;;;;5015568;28;20212;-81
2023/12/19 04:25:48;;;;;;;3.15;2.30;;;4.40;99.90;;;;;;5015784;28;20196;-82
2023/12/19 04:28:15;;;;;;;2.13;1.95;;;4.50;99.90;;;;;;5013954;28;20206;-80
2023/12/19 04:30:42;;;;;;;9.93;5.20;;;4.40;99.90;;;;;;5012930;28;20261;-81
2023/12/19 04:33:09;;;;;;;17.42;4.82;;;4.40;99.90;;;;;;5010645;28;20317;-81
2023/12/19 04:35:35;;;;;;;10.27;4.88;;;4.50;99.90;;;;;;5015436;28;20203;-81
2023/12/19 04:38:03;;;;;;;7.05;6.25;;;4.50;99.90;;;;;;5017362;28;20686;-81
2023/12/19 04:40:32;;;;;;;6.63;5.28;;;4.50;99.90;;;;;;5015533;28;20192;-80
2023/12/19 04:42:59;;;;;;;16.50;10.00;;;4.50;99.90;;;;;;5015614;28;20230;-80
2023/12/19 04:45:26;;;;;;;4.15;3.47;;;4.50;99.90;;;;;;5005877;28;20219;-80
2023/12/19 04:47:53;;;;;;;3.30;3.13;;;4.50;99.90;;;;;;5014086;28;20192;-80
2023/12/19 04:50:20;;;;;;;3.85;3.22;;;4.60;99.90;;;;;;5013314;28;20203;-80
2023/12/19 04:52:47;;;;;;;1.40;1.30;;;4.60;99.90;;;;;;5011481;28;20217;-81
2023/12/19 04:55:14;;;;;;;4.22;3.85;;;4.60;99.90;;;;;;5009914;28;20267;-80
2023/12/19 04:57:42;;;;;;;5.75;4.32;;;4.60;99.90;;;;;;5014159;28;20239;-80
2023/12/19 05:00:10;;;;;;;12.30;10.25;;;4.60;99.90;;;;;;5013822;28;20207;-81
2023/12/19 05:02:37;;;;;;;8.50;5.80;;;4.60;99.90;;;;;;5017867;28;20643;-81
2023/12/19 05:05:04;;;;;;;6.90;4.95;;;4.60;99.90;;;;;;5014634;28;20196;-80
2023/12/19 05:07:32;;;;;;;2.92;2.72;;;4.60;99.90;;;;;;5011846;28;20269;-82
2023/12/19 05:09:58;;;;;;;3.00;2.80;;;4.60;99.90;;;;;;5019453;28;20225;-82
2023/12/19 05:12:25;;;;;;;1.42;0.75;;;4.60;99.90;;;;;;5020321;28;20225;-82
2023/12/19 05:14:53;;;;;;;7.50;5.72;;;4.70;99.90;;;;;;5021565;28;20232;-81
2023/12/19 05:17:20;;;;;;;3.63;2.83;;;4.70;99.90;;;;;;5019580;28;20268;-81
2023/12/19 05:19:47;;;;;;;4.95;4.55;;;4.80;99.90;;;;;;5014524;28;20211;-81
2023/12/19 05:22:13;;;;;;;16.83;4.55;;;4.70;99.90;;;;;;5020527;28;20225;-80
2023/12/19 05:24:42;;;;;;;3.08;2.80;;;4.80;99.90;;;;;;5016136;28;20197;-80
2023/12/19 05:27:09;;;;;;;4.32;3.28;;;4.80;99.90;;;;;;5015818;28;20200;-80
2023/12/19 05:29:36;;;;;;;8.23;4.18;;;4.80;99.90;;;;;;5015989;28;20201;-81
2023/12/19 05:32:05;;;;;;;9.90;5.18;;;4.80;99.90;;;;;;5015912;28;20224;-79
2023/12/19 05:34:32;;;;;;;6.47;5.07;;;4.90;99.90;;;;;;5014806;28;20212;-80
2023/12/19 05:36:58;;;;;;;5.97;3.90;;;4.90;99.90;;;;;;5015481;28;20207;-81
2023/12/19 05:39:25;;;;;;;4.57;4.00;;;4.90;99.90;;;;;;5011808;28;20247;-79
2023/12/19 05:41:56;;;;;;;7.22;5.47;;;4.90;99.90;;;;;;5006360;28;20223;-82
2023/12/19 05:44:23;;;;;;;3.50;3.00;;;5.00;99.90;;;;;;5005733;28;20196;-79
2023/12/19 05:46:50;;;;;;;10.52;7.20;;;5.00;99.90;;;;;;5014306;28;20714;-80
2023/12/19 05:49:19;;;;;;;12.23;9.27;;;5.00;99.90;;;;;;5021153;28;20200;-81
2023/12/19 05:51:45;;;;;;;7.82;6.20;;;5.00;99.90;;;;;;5012882;28;20213;-80
2023/12/19 05:54:12;;;;;;;8.93;7.85;;;5.10;99.90;;;;;;5017794;28;20242;-80
2023/12/19 05:56:39;;;;;;;5.90;4.90;;;5.10;99.90;;;;;;5017933;28;20674;-82
2023/12/19 05:59:06;;;;;;;8.32;4.55;;;5.10;99.90;;;;;;5016725;28;20212;-82
2023/12/19 06:01:32;;;;;;;4.55;4.18;;;5.10;99.90;;;;;;5018106;28;20307;-81
2023/12/19 06:04:01;;;;;;;10.13;5.28;;;5.10;99.90;;;;;;5020578;28;20264;-81
2023/12/19 06:06:29;;;;;;;11.27;5.50;;;5.20;99.90;;;;;;5019151;28;20639;-82
2023/12/19 06:08:56;;;;;;;12.45;7.88;;;5.20;99.90;;;;;;5016694;28;20265;-82
2023/12/19 06:11:27;;;;;;;2.67;2.45;;;5.20;99.90;;;;;;5018093;28;20235;-82
2023/12/19 06:13:54;;;;;;;7.13;6.45;;;5.20;99.90;;;;;;5028603;23;20224;-78
2023/12/19 06:16:20;;;;;;;5.45;4.88;;;5.20;99.90;;;;;;5009840;28;20572;-79
2023/12/19 06:18:47;;;;;;;4.82;2.80;;;5.20;99.90;;;;;;5013364;28;20203;-82
2023/12/19 06:21:14;;;;;;;5.80;4.40;;;5.20;99.90;;;;;;5014230;28;20205;-82
2023/12/19 06:23:42;;;;;;;7.03;5.38;;;5.20;99.90;;;;;;5012756;28;20276;-82
2023/12/19 06:26:09;;;;;;;7.85;7.05;;;5.30;99.90;;;;;;5012511;28;20230;-80
2023/12/19 06:28:38;;;;;;;2.83;2.63;;;5.20;99.90;;;;;;5012954;28;20689;-82
2023/12/19 06:31:05;;;;;;;8.85;7.25;;;5.30;99.90;;;;;;5016072;28;20197;-82
2023/12/19 06:33:32;;;;;;;2.70;2.58;;;5.30;99.90;;;;;;5010519;28;20230;-81
2023/12/19 06:35:59;;;;;;;18.08;6.13;;;5.30;99.90;;;;;;5009475;28;20201;-81
2023/12/19 06:38:26;;;;;;;6.72;5.78;;;5.30;99.90;;;;;;5010033;28;20207;-78
2023/12/19 06:40:54;;;;;;;5.22;4.45;;;5.30;99.90;;;;;;5014338;28;20199;-80
2023/12/19 06:43:21;;;;;;;7.30;4.55;;;5.30;99.90;;;;;;5005776;28;20247;-78
2023/12/19 06:45:47;;;;;;;3.47;3.03;;;5.30;99.90;;;;;;5011472;28;20204;-80
2023/12/19 06:48:14;;;;;;;3.45;2.85;;;5.30;99.90;;;;;;5003409;28;20567;-80
2023/12/19 06:50:41;;;;;;;3.30;2.58;;;5.30;99.90;;;;;;5009616;28;20201;-80
2023/12/19 06:53:08;;;;;;;8.27;6.82;;;5.40;99.90;;;;;;5005019;28;20229;-81
2023/12/19 06:55:34;;;;;;;6.63;6.03;;;5.30;99.90;;;;;;5008964;28;20217;-80
2023/12/19 06:58:03;;;;;;;7.22;4.72;;;5.30;99.90;;;;;;5010771;28;20220;-80
2023/12/19 07:00:30;;;;;;;4.13;3.60;;;5.40;99.90;;;;;;5009530;28;20254;-78
2023/12/19 07:02:57;;;;;;;4.75;4.28;;;5.40;99.90;;;;;;5011998;28;20218;-81
2023/12/19 07:05:23;;;;;;;14.70;5.43;;;5.40;99.90;;;;;;5009660;28;20247;-78
2023/12/19 07:07:51;;;;;;;3.05;2.85;;;5.40;99.90;;;;;;5007357;28;20219;-82
2023/12/19 07:10:19;;;;;;;3.97;3.03;;;5.50;99.90;;;;;;5016716;28;20227;-81
2023/12/19 07:12:45;;;;;;;5.53;2.92;;;5.50;99.90;;;;;;5010657;28;20272;-80
2023/12/19 07:15:14;;;;;;;6.32;3.95;;;5.50;99.90;;;;;;5009088;28;20224;-80
2023/12/19 07:17:41;;;;;;;6.15;4.60;;;5.50;99.90;;;;;;5008879;28;20667;-82
2023/12/19 07:20:09;;;;;;;3.55;2.20;;;5.60;99.90;;;;;;5018243;28;20196;-82
2023/12/19 07:22:36;;;;;;;4.78;3.65;;;5.60;99.90;;;;;;5007343;28;20224;-80
2023/12/19 07:25:03;;;;;;;4.32;4.00;;;5.60;99.90;;;;;;5011258;28;20200;-80
2023/12/19 07:27:31;;;;;;;5.65;2.35;;;5.60;99.90;;;;;;5009569;28;20527;-82
2023/12/19 07:29:58;;;;;;;7.35;4.93;;;5.70;99.90;;;;;;5008522;28;20628;-82
2023/12/19 07:32:26;;;;;;;11.35;4.63;;;5.70;99.90;;;;;;5007576;28;20221;-81
2023/12/19 07:34:53;;;;;;;3.55;3.35;;;5.70;99.90;;;;;;5013707;28;20299;-76
2023/12/19 07:37:19;;;;;;;10.43;3.65;;;5.70;99.90;;;;;;5014518;28;20200;-80
2023/12/19 07:39:46;;;;;;;13.27;6.35;;;5.70;99.90;;;;;;5007833;28;20203;-81
2023/12/19 07:42:13;;;;;;;4.88;4.47;;;5.70;99.90;;;;;;5004773;28;20224;-80
2023/12/19 07:44:40;;;;;;;7.32;5.60;;;5.70;99.90;;;;;;5006864;28;20779;-80
2023/12/19 07:47:07;;;;;;;5.80;5.28;;;5.70;99.90;;;;;;5007884;28;20209;-81
2023/12/19 07:49:35;;;;;;;6.25;4.75;;;5.70;99.90;;;;;;5001756;28;20232;-80
2023/12/19 07:52:03;;;;;;;5.53;4.07;;;5.70;99.90;;;;;;4999912;28;20208;-82
2023/12/19 07:54:30;;;;;;;8.10;7.30;;;5.70;99.90;;;;;;4999732;28;20231;-78
2023/12/19 07:56:58;;;;;;;2.15;1.95;;;5.80;99.90;;;;;;4998967;28;20197;-79
2023/12/19 07:59:24;;;;;;;3.40;3.15;;;5.80;99.90;;;;;;5007334;28;20196;-80
2023/12/19 08:01:51;;;;;;;4.97;4.53;;;5.80;99.90;;;;;;5019039;28;20204;-81
2023/12/19 08:04:18;;;;;;;7.40;6.00;;;5.80;99.90;;;;;;5018873;28;20198;-79
2023/12/19 08:06:48;;;;;;;15.05;9.25;;;5.80;99.90;;;;;;5000061;28;20263;-81
2023/12/19 08:09:15;;;;;;;7.88;2.90;;;5.80;99.90;;;;;;5014511;28;20204;-80
2023/12/19 08:11:42;;;;;;;17.15;9.02;;;5.80;99.90;;;;;;5009170;28;20209;-83
2023/12/19 08:14:08;;;;;;;4.60;4.30;;;5.80;99.90;;;;;;4998940;28;20225;-80
2023/12/19 08:16:35;;;;;;;8.23;6.43;;;5.80;99.90;;;;;;5015979;28;20660;-80
2023/12/19 08:19:02;;;;;;;8.77;5.75;;;5.90;99.90;;;;;;5009918;28;20204;-82
2023/12/19 08:21:30;;;;;;;4.68;3.42;;;5.90;99.90;;;;;;5001697;28;20204;-79
2023/12/19 08:23:59;;;;;;;3.60;2.30;;;5.90;99.90;;;;;;5002624;28;20216;-80
2023/12/19 08:26:25;;;;;;;4.50;3.50;;;5.90;99.90;;;;;;5002013;28;20201;-80
2023/12/19 08:28:52;;;;;;;5.35;4.10;;;5.90;99.90;;;;;;4998411;28;20205;-80
2023/12/19 08:31:19;;;;;;;4.95;3.88;;;5.90;99.90;;;;;;4998713;28;20193;-79
2023/12/19 08:33:46;;;;;;;57.72;4.10;;;5.90;99.90;;;;;;5006075;28;20220;-80
2023/12/19 08:36:13;;;;;;;8.63;4.97;;;5.90;99.90;;;;;;4998499;28;20276;-80
2023/12/19 08:38:43;;;;;;;5.30;4.40;;;6.00;99.90;;;;;;4998763;28;20572;-80
2023/12/19 08:41:11;;;;;;;4.72;2.67;;;6.00;99.90;;;;;;5003970;28;20207;-80
2023/12/19 08:43:38;;;;;;;6.45;4.25;;;6.00;99.90;;;;;;5009591;28;20212;-80
2023/12/19 08:46:05;;;;;;;8.38;5.38;;;6.00;99.90;;;;;;4998321;28;20187;-80
2023/12/19 08:48:31;;;;;;;5.10;2.45;;;6.10;99.90;;;;;;4999070;28;20197;-77
2023/12/19 08:50:58;;;;;;;1.95;1.85;;;6.00;99.90;;;;;;4999120;28;20201;-80
2023/12/19 08:53:25;;;;;;;2.20;2.00;;;6.10;99.90;;;;;;4998694;28;20213;-80
2023/12/19 08:55:52;;;;;;;3.40;3.20;;;6.10;99.90;;;;;;4998267;28;20225;-79
2023/12/19 08:58:20;;;;;;;3.85;3.20;;;6.10;99.90;;;;;;4997648;28;20615;-79
2023/12/19 09:00:47;;;;;;;8.52;6.03;;;6.10;99.90;;;;;;5000746;28;20576;-80
2023/12/19 09:03:13;;;;;;;21.15;5.45;;;6.10;99.90;;;;;;5017040;28;20263;-80
2023/12/19 09:05:40;;;;;;;2.00;1.88;;;6.10;99.90;;;;;;5006921;28;20739;-80
2023/12/19 09:08:07;;;;;;;8.13;7.43;;;6.10;99.90;;;;;;5009310;28;20671;-80
2023/12/19 09:10:34;;;;;;;9.43;5.25;;;6.10;99.90;;;;;;4999433;28;20681;-82
2023/12/19 09:13:01;;;;;;;5.25;3.70;;;6.10;99.90;;;;;;5003949;28;20221;-81
2023/12/19 09:15:30;;;;;;;4.93;3.50;;;6.10;99.90;;;;;;4996515;28;20221;-80
2023/12/19 09:17:56;;;;;;;6.68;3.33;;;6.10;99.90;;;;;;4996189;28;20284;-79
2023/12/19 09:20:24;;;;;;;0.60;0.60;;;6.10;99.90;;;;;;4995766;28;20194;-80
2023/12/19 09:22:51;;;;;;;5.80;5.25;;;6.10;99.90;;;;;;5004404;28;20858;-76
2023/12/19 09:25:18;;;;;;;3.95;2.78;;;6.10;99.90;;;;;;4995718;28;20193;-80
2023/12/19 09:27:46;;;;;;;2.55;2.05;;;6.10;99.90;;;;;;4995721;28;20678;-80
2023/12/19 09:30:15;;;;;;;0.47;0.40;;;6.10;99.90;;;;;;4996811;28;20205;-80
2023/12/19 09:32:44;;;;;;;1.80;1.70;;;6.10;99.90;;;;;;4996829;28;20312;-80
2023/12/19 09:35:11;;;;;;;0.40;0.40;;;6.20;99.90;;;;;;5001105;28;20580;-80
2023/12/19 09:37:38;;;;;;;4.80;4.28;;;6.20;99.90;;;;;;4999307;28;20197;-80
2023/12/19 09:40:07;;;;;;;3.83;3.10;;;6.10;99.90;;;;;;4995851;28;20260;-78
2023/12/19 09:42:33;;;;;;;2.58;2.10;;;6.10;99.90;;;;;;5003959;28;20217;-79
2023/12/19 09:45:00;;;;;;;5.78;4.18;;;6.10;99.90;;;;;;4995816;28;20553;-78
2023/12/19 09:47:31;;;;;;;5.38;4.57;;;6.10;99.90;;;;;;4995803;28;20209;-80
2023/12/19 09:50:03;;;;;;;4.32;3.50;;;6.00;99.90;;;;;;4996305;28;20182;-80
2023/12/19 09:52:31;;;;;;;5.50;2.08;;;6.00;99.90;;;;;;5002911;28;20216;-79
2023/12/19 09:55:00;;;;;;;3.50;3.20;;;6.00;99.90;;;;;;4996148;28;20213;-80
2023/12/19 09:57:27;;;;;;;3.03;2.92;;;6.10;99.90;;;;;;4995367;28;20280;-80
2023/12/19 09:59:55;;;;;;;6.05;3.80;;;6.10;99.90;;;;;;5003293;28;20707;-80
2023/12/19 10:02:22;;;;;;;4.75;2.35;;;6.10;99.90;;;;;;4994874;28;20221;-80
2023/12/19 10:04:49;;;;;;;1.10;0.73;;;6.10;99.90;;;;;;4996652;28;20189;-80
2023/12/19 10:07:18;;;;;;;2.15;1.67;;;6.10;99.90;;;;;;5014500;28;20195;-81
2023/12/19 10:09:54;;;;;;;4.22;3.58;;;6.10;99.90;;;;;;4998293;28;20201;-81
2023/12/19 10:12:22;;;;;;;1.42;1.33;;;6.10;99.90;;;;;;4997289;28;20231;-79
2023/12/19 10:14:48;;;;;;;3.50;1.85;;;6.10;99.90;;;;;;4999703;28;20217;-80
2023/12/19 10:17:17;;;;;;;5.85;3.28;;;6.20;99.90;;;;;;4998673;28;20207;-80
2023/12/19 10:19:44;;;;;;;1.30;1.20;;;6.10;99.90;;;;;;4999501;28;20217;-82
2023/12/19 10:22:16;;;;;;;5.13;4.70;;;6.10;99.90;;;;;;4999461;28;20716;-80
2023/12/19 10:24:44;;;;;;;1.80;1.05;;;6.10;99.90;;;;;;5016090;28;20211;-80
2023/12/19 10:27:11;;;;;;;3.90;1.23;;;6.20;99.90;;;;;;5018840;28;20196;-80
2023/12/19 10:29:38;;;;;;;1.20;0.75;;;6.20;99.90;;;;;;5004484;28;20257;-80
2023/12/19 10:32:16;;;;;;;2.17;2.05;;;6.20;99.90;;;;;;4999775;28;20224;-81
2023/12/19 10:34:44;;;;;;;3.75;3.45;;;6.30;99.90;;;;;;4999441;28;20207;-80
2023/12/19 10:37:12;;;;;;;3.30;3.00;;;6.30;99.90;;;;;;5000147;28;20873;-81
2023/12/19 10:39:41;;;;;;;2.28;2.17;;;6.30;99.90;;;;;;5007779;28;20196;-81
2023/12/19 10:42:10;;;;;;;3.05;2.85;;;6.20;99.90;;;;;;4991048;28;20197;-80
2023/12/19 10:44:39;;;;;;;3.33;1.50;;;6.20;99.90;;;;;;4998572;28;20550;-82
2023/12/19 10:47:07;;;;;;;6.75;4.18;;;6.20;99.90;;;;;;4998284;28;20201;-81
2023/12/19 10:49:34;;;;;;;12.75;3.47;;;6.30;99.90;;;;;;4998800;28;20730;-81
2023/12/19 10:52:05;;;;;;;1.40;1.20;;;6.30;99.90;;;;;;5014588;28;20197;-79
2023/12/19 10:54:35;;;;;;;1.17;1.15;;;6.30;99.90;;;;;;5004777;28;20284;-80
2023/12/19 10:57:06;;;;;;;2.15;2.00;;;6.40;99.90;;;;;;4999281;28;20197;-81
2023/12/19 10:59:46;;;;;;;4.35;3.95;;;6.40;99.90;;;;;;5003741;28;20220;-78
2023/12/19 11:02:22;;;;;;;0.93;0.93;;;6.40;99.90;;;;;;4987878;28;20216;-80
2023/12/19 11:04:54;;;;;;;1.25;1.23;;;6.50;99.90;;;;;;5004238;28;20196;-80
2023/12/19 11:07:25;;;;;;;2.10;2.00;;;6.50;99.90;;;;;;5010191;28;20248;-80
2023/12/19 11:10:04;;;;;;;1.88;1.77;;;6.60;99.90;;;;;;4995217;28;20197;-80
2023/12/19 11:12:32;;;;;;;3.20;2.63;;;6.60;99.90;;;;;;4995324;28;20224;-80
2023/12/19 11:15:01;;;;;;;8.57;4.38;;;6.70;99.90;;;;;;5013118;28;20204;-80
2023/12/19 11:17:30;;;;;;;7.47;3.72;;;6.70;99.90;;;;;;5006040;28;20197;-80
2023/12/19 11:20:04;;;;;;;3.90;3.65;;;6.70;99.90;;;;;;4996353;28;20193;-80
2023/12/19 11:22:36;;;;;;;2.05;1.92;;;6.70;99.90;;;;;;5005733;28;20213;-80
2023/12/19 11:25:10;;;;;;;7.35;2.88;;;6.70;99.90;;;;;;5001156;28;20197;-79
2023/12/19 11:27:43;;;;;;;2.10;1.90;;;6.70;99.90;;;;;;5002938;28;20252;-80
2023/12/19 11:30:32;;;;;;;2.05;1.77;;;6.80;99.90;;;;;;5010300;28;20196;-80
2023/12/19 11:33:00;;;;;;;4.78;3.20;;;6.80;99.90;;;;;;5010759;28;20240;-81
2023/12/19 11:35:29;;;;;;;2.17;2.03;;;6.80;99.90;;;;;;5010710;28;20216;-78
2023/12/19 11:38:25;;;;;;;1.80;1.70;;;6.80;99.90;;;;;;5019112;28;20197;-80
2023/12/19 11:40:54;;;;;;;8.20;4.15;;;6.80;99.90;;;;;;5011707;28;20192;-80
2023/12/19 11:43:55;;;;;;;6.07;2.00;;;6.80;99.90;;;;;;5014664;28;20227;-81
2023/12/19 11:46:25;;;;;;;5.15;3.05;;;6.80;99.90;;;;;;5004638;28;20263;-82
2023/12/19 11:48:53;;;;;;;3.65;2.28;;;6.80;99.90;;;;;;5007249;28;20283;-81
2023/12/19 11:51:46;;;;;;;3.85;2.15;;;6.90;99.90;;;;;;5001130;28;20197;-80
2023/12/19 11:54:13;;;;;;;2.95;2.72;;;6.80;99.90;;;;;;5003815;28;20303;-81
2023/12/19 11:56:41;;;;;;;2.15;1.95;;;6.80;99.90;;;;;;5020813;28;20212;-80
2023/12/19 11:59:08;;;;;;;3.35;2.67;;;6.80;99.90;;;;;;5001696;28;20194;-81
2023/12/19 12:01:40;;;;;;;6.05;4.32;;;6.80;99.90;;;;;;5000302;28;20193;-80
2023/12/19 12:04:07;;;;;;;17.75;6.75;;;6.80;99.90;;;;;;4999929;28;20221;-78
2023/12/19 12:06:35;;;;;;;3.45;3.03;;;6.80;99.90;;;;;;5009469;28;20193;-79
2023/12/19 12:09:05;;;;;;;3.03;2.20;;;6.90;99.90;;;;;;5008680;28;20201;-76
2023/12/19 12:11:45;;;;;;;1.48;1.38;;;6.80;99.90;;;;;;5009761;28;20656;-80
2023/12/19 12:14:12;;;;;;;5.20;2.83;;;6.80;99.90;;;;;;5010348;28;20291;-80
2023/12/19 12:16:42;;;;;;;1.30;1.30;;;6.80;99.90;;;;;;5006810;28;20244;-80
2023/12/19 12:19:13;;;;;;;4.38;2.92;;;6.80;99.90;;;;;;5002046;28;20327;-79
2023/12/19 12:21:47;;;;;;;0.60;0.60;;;6.80;99.90;;;;;;5016764;28;20204;-80
2023/12/19 12:24:20;;;;;;;2.05;1.77;;;6.90;99.90;;;;;;5001500;28;20568;-79
2023/12/19 12:26:48;;;;;;;2.78;2.30;;;6.90;99.90;;;;;;5009327;28;20193;-80
2023/12/19 12:29:16;;;;;;;5.55;1.70;;;6.90;99.90;;;;;;5008126;28;20205;-81
2023/12/19 12:31:45;;;;;;;4.10;2.75;;;6.90;99.90;;;;;;5001792;28;20616;-83
2023/12/19 12:34:12;;;;;;;3.03;2.55;;;6.90;99.90;;;;;;5000787;28;20233;-80
2023/12/19 12:36:39;;;;;;;3.55;2.60;;;6.80;99.90;;;;;;5004319;28;20266;-79
2023/12/19 12:39:07;;;;;;;1.08;0.98;;;6.80;99.90;;;;;;5010173;28;20236;-78
2023/12/19 12:41:33;;;;;;;2.95;2.80;;;6.80;99.90;;;;;;5015415;28;20196;-79
2023/12/19 12:44:00;;;;;;;1.85;1.70;;;6.80;99.90;;;;;;5001697;28;20217;-79
2023/12/19 12:46:27;;;;;;;3.10;2.70;;;6.80;99.90;;;;;;5002068;28;20194;-80
2023/12/19 12:49:03;;;;;;;3.92;3.55;;;6.80;99.90;;;;;;5001080;28;20615;-78
2023/12/19 12:51:30;;;;;;;5.32;2.78;;;6.80;99.90;;;;;;5013899;28;20653;-80
2023/12/19 12:53:58;;;;;;;1.67;1.58;;;6.70;99.90;;;;;;4998333;28;20592;-80
2023/12/19 12:56:30;;;;;;;2.92;1.40;;;6.70;99.90;;;;;;4998019;28;20285;-79
2023/12/19 12:59:01;;;;;;;2.05;1.70;;;6.70;99.90;;;;;;5006562;28;20555;-82